sensor_id;sensor_type;location;lat;lon;timestamp;temperature;humidity
26707;DHT22;14319;49.422;10.934;2023-07-13T00:01:28;21.50;65.20
26707;DHT22;14319;49.422;10.934;2023-07-13T00:03:29;21.70;65.80
26707;DHT22;14319;49.422;10.934;2023-07-13T00:05:37;21.60;64.60
26707;DHT22;14319;49.422;10.934;2023-07-13T00:07:38;21.80;65.20
26707;DHT22;14319;49.422;10.934;2023-07-13T00:09:39;21.50;64.60
26707;DHT22;14319;49.422;10.934;2023-07-13T00:11:40;21.40;65.30
26707;DHT22;14319;49.422;10.934;2023-07-13T00:13:41;21.20;65.40
26707;DHT22;14319;49.422;10.934;2023-07-13T00:15:42;21.30;65.70
26707;DHT22;14319;49.422;10.934;2023-07-13T00:17:43;21.20;65.70
26707;DHT22;14319;49.422;10.934;2023-07-13T00:19:47;21.10;66.30
26707;DHT22;14319;49.422;10.934;2023-07-13T00:21:48;21.00;66.00
26707;DHT22;14319;49.422;10.934;2023-07-13T00:23:49;21.10;66.30
26707;DHT22;14319;49.422;10.934;2023-07-13T00:25:49;21.20;66.30
26707;DHT22;14319;49.422;10.934;2023-07-13T00:27:51;21.20;65.80
26707;DHT22;14319;49.422;10.934;2023-07-13T00:29:52;21.10;66.30
26707;DHT22;14319;49.422;10.934;2023-07-13T00:31:53;21.20;65.80
26707;DHT22;14319;49.422;10.934;2023-07-13T00:33:53;21.20;65.90
26707;DHT22;14319;49.422;10.934;2023-07-13T00:35:55;21.10;66.30
26707;DHT22;14319;49.422;10.934;2023-07-13T00:37:56;21.10;66.60
26707;DHT22;14319;49.422;10.934;2023-07-13T00:39:57;21.00;66.30
26707;DHT22;14319;49.422;10.934;2023-07-13T00:41:58;20.90;66.40
26707;DHT22;14319;49.422;10.934;2023-07-13T00:43:59;21.00;67.40
26707;DHT22;14319;49.422;10.934;2023-07-13T00:48:21;21.10;66.60
26707;DHT22;14319;49.422;10.934;2023-07-13T00:50:22;21.00;66.50
26707;DHT22;14319;49.422;10.934;2023-07-13T00:52:23;21.10;66.50
26707;DHT22;14319;49.422;10.934;2023-07-13T00:54:28;21.00;65.90
26707;DHT22;14319;49.422;10.934;2023-07-13T00:56:30;20.90;67.00
26707;DHT22;14319;49.422;10.934;2023-07-13T00:58:34;20.90;65.70
26707;DHT22;14319;49.422;10.934;2023-07-13T01:00:38;20.90;66.50
26707;DHT22;14319;49.422;10.934;2023-07-13T01:02:42;21.00;65.50
26707;DHT22;14319;49.422;10.934;2023-07-13T01:04:43;21.10;67.50
26707;DHT22;14319;49.422;10.934;2023-07-13T01:06:45;21.20;65.90
26707;DHT22;14319;49.422;10.934;2023-07-13T01:08:47;21.20;65.40
26707;DHT22;14319;49.422;10.934;2023-07-13T01:10:55;21.20;65.90
26707;DHT22;14319;49.422;10.934;2023-07-13T01:12:56;20.90;65.70
26707;DHT22;14319;49.422;10.934;2023-07-13T01:14:58;20.70;66.50
26707;DHT22;14319;49.422;10.934;2023-07-13T01:17:00;20.60;67.10
26707;DHT22;14319;49.422;10.934;2023-07-13T01:19:03;20.60;68.10
26707;DHT22;14319;49.422;10.934;2023-07-13T01:21:08;20.50;67.40
26707;DHT22;14319;49.422;10.934;2023-07-13T01:23:10;20.30;67.80
26707;DHT22;14319;49.422;10.934;2023-07-13T01:25:13;20.40;67.70
26707;DHT22;14319;49.422;10.934;2023-07-13T01:27:16;20.20;68.00
26707;DHT22;14319;49.422;10.934;2023-07-13T01:29:17;20.20;68.30
26707;DHT22;14319;49.422;10.934;2023-07-13T01:31:18;20.30;67.80
26707;DHT22;14319;49.422;10.934;2023-07-13T01:33:18;20.20;68.60
26707;DHT22;14319;49.422;10.934;2023-07-13T01:35:19;20.20;67.70
26707;DHT22;14319;49.422;10.934;2023-07-13T01:37:20;20.10;67.50
26707;DHT22;14319;49.422;10.934;2023-07-13T01:39:22;20.10;68.80
26707;DHT22;14319;49.422;10.934;2023-07-13T01:41:23;20.20;67.40
26707;DHT22;14319;49.422;10.934;2023-07-13T01:43:23;20.20;67.90
26707;DHT22;14319;49.422;10.934;2023-07-13T01:45:24;20.10;67.90
26707;DHT22;14319;49.422;10.934;2023-07-13T01:47:25;20.10;68.00
26707;DHT22;14319;49.422;10.934;2023-07-13T01:49:26;20.20;68.60
26707;DHT22;14319;49.422;10.934;2023-07-13T01:51:27;20.20;67.60
26707;DHT22;14319;49.422;10.934;2023-07-13T01:53:27;20.20;67.70
26707;DHT22;14319;49.422;10.934;2023-07-13T01:55:29;20.30;67.20
26707;DHT22;14319;49.422;10.934;2023-07-13T01:57:30;20.30;67.30
26707;DHT22;14319;49.422;10.934;2023-07-13T01:59:30;20.10;67.60
26707;DHT22;14319;49.422;10.934;2023-07-13T02:01:33;19.90;68.30
26707;DHT22;14319;49.422;10.934;2023-07-13T02:03:33;19.80;68.40
26707;DHT22;14319;49.422;10.934;2023-07-13T02:05:34;19.80;68.60
26707;DHT22;14319;49.422;10.934;2023-07-13T02:07:35;19.80;68.20
26707;DHT22;14319;49.422;10.934;2023-07-13T02:09:37;19.70;68.70
26707;DHT22;14319;49.422;10.934;2023-07-13T02:11:38;19.80;68.10
26707;DHT22;14319;49.422;10.934;2023-07-13T02:13:39;19.80;68.00
26707;DHT22;14319;49.422;10.934;2023-07-13T02:15:40;19.90;68.30
26707;DHT22;14319;49.422;10.934;2023-07-13T02:17:41;19.70;67.80
26707;DHT22;14319;49.422;10.934;2023-07-13T02:19:41;19.80;67.60
26707;DHT22;14319;49.422;10.934;2023-07-13T02:21:43;19.60;67.80
26707;DHT22;14319;49.422;10.934;2023-07-13T02:23:43;19.40;68.00
26707;DHT22;14319;49.422;10.934;2023-07-13T02:25:45;19.60;68.60
26707;DHT22;14319;49.422;10.934;2023-07-13T02:27:46;19.70;67.30
26707;DHT22;14319;49.422;10.934;2023-07-13T02:29:46;19.60;66.80
26707;DHT22;14319;49.422;10.934;2023-07-13T02:31:47;19.40;67.40
26707;DHT22;14319;49.422;10.934;2023-07-13T02:33:49;19.50;67.40
26707;DHT22;14319;49.422;10.934;2023-07-13T02:35:49;19.40;67.60
26707;DHT22;14319;49.422;10.934;2023-07-13T02:37:50;19.50;68.30
26707;DHT22;14319;49.422;10.934;2023-07-13T02:39:51;19.40;67.20
26707;DHT22;14319;49.422;10.934;2023-07-13T02:41:51;19.20;67.60
26707;DHT22;14319;49.422;10.934;2023-07-13T02:43:52;19.00;68.00
26707;DHT22;14319;49.422;10.934;2023-07-13T02:45:53;18.90;68.20
26707;DHT22;14319;49.422;10.934;2023-07-13T02:47:53;19.00;67.80
26707;DHT22;14319;49.422;10.934;2023-07-13T02:49:54;18.90;67.20
26707;DHT22;14319;49.422;10.934;2023-07-13T02:51:55;18.80;67.80
26707;DHT22;14319;49.422;10.934;2023-07-13T02:53:56;18.80;67.20
26707;DHT22;14319;49.422;10.934;2023-07-13T02:55:57;18.80;67.60
26707;DHT22;14319;49.422;10.934;2023-07-13T02:57:57;18.70;68.00
26707;DHT22;14319;49.422;10.934;2023-07-13T02:59:58;18.80;67.50
26707;DHT22;14319;49.422;10.934;2023-07-13T03:02:01;18.80;67.30
26707;DHT22;14319;49.422;10.934;2023-07-13T03:04:03;18.70;67.30
26707;DHT22;14319;49.422;10.934;2023-07-13T03:06:06;18.60;68.20
26707;DHT22;14319;49.422;10.934;2023-07-13T03:08:16;18.50;68.10
26707;DHT22;14319;49.422;10.934;2023-07-13T03:10:17;18.60;67.40
26707;DHT22;14319;49.422;10.934;2023-07-13T03:12:23;18.70;68.50
26707;DHT22;14319;49.422;10.934;2023-07-13T03:14:25;18.60;67.10
26707;DHT22;14319;49.422;10.934;2023-07-13T03:16:26;18.50;67.30
26707;DHT22;14319;49.422;10.934;2023-07-13T03:18:28;18.50;67.50
26707;DHT22;14319;49.422;10.934;2023-07-13T03:20:33;18.40;67.20
26707;DHT22;14319;49.422;10.934;2023-07-13T03:22:34;18.50;66.70
26707;DHT22;14319;49.422;10.934;2023-07-13T03:24:35;18.50;66.70
26707;DHT22;14319;49.422;10.934;2023-07-13T03:26:38;18.50;66.40
26707;DHT22;14319;49.422;10.934;2023-07-13T03:28:41;18.40;66.40
26707;DHT22;14319;49.422;10.934;2023-07-13T03:30:44;18.50;66.70
26707;DHT22;14319;49.422;10.934;2023-07-13T03:32:45;18.30;66.30
26707;DHT22;14319;49.422;10.934;2023-07-13T03:34:46;18.40;66.80
26707;DHT22;14319;49.422;10.934;2023-07-13T03:36:47;18.30;66.70
26707;DHT22;14319;49.422;10.934;2023-07-13T03:38:53;18.30;66.80
26707;DHT22;14319;49.422;10.934;2023-07-13T03:40:57;18.20;66.60
26707;DHT22;14319;49.422;10.934;2023-07-13T03:42:57;18.20;66.40
26707;DHT22;14319;49.422;10.934;2023-07-13T03:44:58;18.20;66.50
26707;DHT22;14319;49.422;10.934;2023-07-13T03:46:59;18.20;66.50
26707;DHT22;14319;49.422;10.934;2023-07-13T03:49:00;18.20;66.60
26707;DHT22;14319;49.422;10.934;2023-07-13T03:51:00;18.00;66.60
26707;DHT22;14319;49.422;10.934;2023-07-13T03:53:01;18.00;67.00
26707;DHT22;14319;49.422;10.934;2023-07-13T03:55:02;18.10;67.50
26707;DHT22;14319;49.422;10.934;2023-07-13T03:57:03;18.20;66.60
26707;DHT22;14319;49.422;10.934;2023-07-13T03:59:06;18.10;66.60
26707;DHT22;14319;49.422;10.934;2023-07-13T04:01:09;18.20;66.40
26707;DHT22;14319;49.422;10.934;2023-07-13T04:03:10;18.10;67.30
26707;DHT22;14319;49.422;10.934;2023-07-13T04:05:10;18.10;66.80
26707;DHT22;14319;49.422;10.934;2023-07-13T04:07:11;18.00;67.30
26707;DHT22;14319;49.422;10.934;2023-07-13T04:09:14;18.00;67.60
26707;DHT22;14319;49.422;10.934;2023-07-13T04:11:14;18.00;67.20
26707;DHT22;14319;49.422;10.934;2023-07-13T04:13:15;18.00;67.00
26707;DHT22;14319;49.422;10.934;2023-07-13T04:15:16;18.00;67.50
26707;DHT22;14319;49.422;10.934;2023-07-13T04:17:16;18.00;67.20
26707;DHT22;14319;49.422;10.934;2023-07-13T04:19:17;18.10;67.00
26707;DHT22;14319;49.422;10.934;2023-07-13T04:21:17;18.20;66.80
26707;DHT22;14319;49.422;10.934;2023-07-13T04:23:18;18.30;66.60
26707;DHT22;14319;49.422;10.934;2023-07-13T04:25:20;18.20;66.50
26707;DHT22;14319;49.422;10.934;2023-07-13T04:27:21;18.10;66.80
26707;DHT22;14319;49.422;10.934;2023-07-13T04:29:21;18.20;66.20
26707;DHT22;14319;49.422;10.934;2023-07-13T04:31:22;18.10;66.80
26707;DHT22;14319;49.422;10.934;2023-07-13T04:33:22;18.10;66.60
26707;DHT22;14319;49.422;10.934;2023-07-13T04:35:23;18.10;66.10
26707;DHT22;14319;49.422;10.934;2023-07-13T04:37:24;18.00;66.50
26707;DHT22;14319;49.422;10.934;2023-07-13T04:39:24;18.20;66.50
26707;DHT22;14319;49.422;10.934;2023-07-13T04:41:25;18.20;66.60
26707;DHT22;14319;49.422;10.934;2023-07-13T04:43:26;18.20;65.60
26707;DHT22;14319;49.422;10.934;2023-07-13T04:45:26;18.20;65.80
26707;DHT22;14319;49.422;10.934;2023-07-13T04:47:30;18.10;66.00
26707;DHT22;14319;49.422;10.934;2023-07-13T04:49:30;18.10;66.10
26707;DHT22;14319;49.422;10.934;2023-07-13T04:51:31;18.40;66.30
26707;DHT22;14319;49.422;10.934;2023-07-13T04:53:32;18.30;66.40
26707;DHT22;14319;49.422;10.934;2023-07-13T04:55:34;18.30;65.60
26707;DHT22;14319;49.422;10.934;2023-07-13T04:57:35;18.30;65.60
26707;DHT22;14319;49.422;10.934;2023-07-13T04:59:35;18.20;66.00
26707;DHT22;14319;49.422;10.934;2023-07-13T05:01:36;18.30;65.90
26707;DHT22;14319;49.422;10.934;2023-07-13T05:03:36;18.10;65.80
26707;DHT22;14319;49.422;10.934;2023-07-13T05:05:37;18.10;65.90
26707;DHT22;14319;49.422;10.934;2023-07-13T05:07:38;18.00;65.70
26707;DHT22;14319;49.422;10.934;2023-07-13T05:09:38;18.00;66.50
26707;DHT22;14319;49.422;10.934;2023-07-13T05:11:40;18.00;66.30
26707;DHT22;14319;49.422;10.934;2023-07-13T05:13:40;18.00;66.50
26707;DHT22;14319;49.422;10.934;2023-07-13T05:15:41;18.00;65.90
26707;DHT22;14319;49.422;10.934;2023-07-13T05:17:42;18.00;66.20
26707;DHT22;14319;49.422;10.934;2023-07-13T05:19:42;18.00;66.50
26707;DHT22;14319;49.422;10.934;2023-07-13T05:21:43;18.00;65.20
26707;DHT22;14319;49.422;10.934;2023-07-13T05:23:44;18.00;65.10
26707;DHT22;14319;49.422;10.934;2023-07-13T05:25:44;18.00;65.40
26707;DHT22;14319;49.422;10.934;2023-07-13T05:27:45;18.00;65.80
26707;DHT22;14319;49.422;10.934;2023-07-13T05:29:46;18.00;65.40
26707;DHT22;14319;49.422;10.934;2023-07-13T05:31:47;18.00;65.60
26707;DHT22;14319;49.422;10.934;2023-07-13T05:33:47;18.10;65.80
26707;DHT22;14319;49.422;10.934;2023-07-13T05:35:48;18.10;65.40
26707;DHT22;14319;49.422;10.934;2023-07-13T05:37:48;18.10;65.50
26707;DHT22;14319;49.422;10.934;2023-07-13T05:39:49;18.20;65.90
26707;DHT22;14319;49.422;10.934;2023-07-13T05:41:50;18.20;65.40
26707;DHT22;14319;49.422;10.934;2023-07-13T05:43:50;18.20;65.30
26707;DHT22;14319;49.422;10.934;2023-07-13T05:45:53;18.20;66.30
26707;DHT22;14319;49.422;10.934;2023-07-13T05:47:54;18.30;65.50
26707;DHT22;14319;49.422;10.934;2023-07-13T05:49:54;18.30;65.60
26707;DHT22;14319;49.422;10.934;2023-07-13T05:51:55;18.30;64.60
26707;DHT22;14319;49.422;10.934;2023-07-13T05:53:55;18.30;64.70
26707;DHT22;14319;49.422;10.934;2023-07-13T05:55:56;18.30;65.10
26707;DHT22;14319;49.422;10.934;2023-07-13T05:57:57;18.30;65.10
26707;DHT22;14319;49.422;10.934;2023-07-13T05:59:58;18.30;64.40
26707;DHT22;14319;49.422;10.934;2023-07-13T06:01:59;18.40;64.80
26707;DHT22;14319;49.422;10.934;2023-07-13T06:03:59;18.40;65.20
26707;DHT22;14319;49.422;10.934;2023-07-13T06:06:00;18.50;65.10
26707;DHT22;14319;49.422;10.934;2023-07-13T06:08:01;18.50;64.40
26707;DHT22;14319;49.422;10.934;2023-07-13T06:10:02;18.50;64.40
26707;DHT22;14319;49.422;10.934;2023-07-13T06:12:02;18.50;65.20
26707;DHT22;14319;49.422;10.934;2023-07-13T06:14:03;18.40;64.30
26707;DHT22;14319;49.422;10.934;2023-07-13T06:16:04;18.30;64.40
26707;DHT22;14319;49.422;10.934;2023-07-13T06:18:05;18.30;64.40
26707;DHT22;14319;49.422;10.934;2023-07-13T06:20:06;18.30;63.80
26707;DHT22;14319;49.422;10.934;2023-07-13T06:22:07;18.50;64.80
26707;DHT22;14319;49.422;10.934;2023-07-13T06:24:07;18.50;64.00
26707;DHT22;14319;49.422;10.934;2023-07-13T06:26:09;18.50;63.40
26707;DHT22;14319;49.422;10.934;2023-07-13T06:28:10;18.50;63.90
26707;DHT22;14319;49.422;10.934;2023-07-13T06:30:11;18.70;63.10
26707;DHT22;14319;49.422;10.934;2023-07-13T06:32:12;18.70;63.50
26707;DHT22;14319;49.422;10.934;2023-07-13T06:34:13;18.70;62.70
26707;DHT22;14319;49.422;10.934;2023-07-13T06:36:13;18.70;63.20
26707;DHT22;14319;49.422;10.934;2023-07-13T06:38:14;18.80;63.50
26707;DHT22;14319;49.422;10.934;2023-07-13T06:40:15;18.80;62.60
26707;DHT22;14319;49.422;10.934;2023-07-13T06:42:16;18.70;63.30
26707;DHT22;14319;49.422;10.934;2023-07-13T06:44:17;18.80;63.80
26707;DHT22;14319;49.422;10.934;2023-07-13T06:46:18;18.90;63.50
26707;DHT22;14319;49.422;10.934;2023-07-13T06:48:19;18.80;62.70
26707;DHT22;14319;49.422;10.934;2023-07-13T06:50:19;18.80;62.70
26707;DHT22;14319;49.422;10.934;2023-07-13T06:52:20;18.90;62.50
26707;DHT22;14319;49.422;10.934;2023-07-13T06:54:21;19.00;63.10
26707;DHT22;14319;49.422;10.934;2023-07-13T06:56:21;19.10;62.60
26707;DHT22;14319;49.422;10.934;2023-07-13T06:58:22;19.20;62.20
26707;DHT22;14319;49.422;10.934;2023-07-13T07:00:23;19.20;62.30
26707;DHT22;14319;49.422;10.934;2023-07-13T07:02:24;19.00;62.40
26707;DHT22;14319;49.422;10.934;2023-07-13T07:04:24;19.20;62.20
26707;DHT22;14319;49.422;10.934;2023-07-13T07:06:25;19.40;62.60
26707;DHT22;14319;49.422;10.934;2023-07-13T07:08:26;19.30;61.90
26707;DHT22;14319;49.422;10.934;2023-07-13T07:10:28;19.20;61.80
26707;DHT22;14319;49.422;10.934;2023-07-13T07:12:29;19.30;61.90
26707;DHT22;14319;49.422;10.934;2023-07-13T07:14:30;19.30;62.60
26707;DHT22;14319;49.422;10.934;2023-07-13T07:16:30;19.30;60.80
26707;DHT22;14319;49.422;10.934;2023-07-13T07:18:31;19.30;61.70
26707;DHT22;14319;49.422;10.934;2023-07-13T07:20:31;19.30;61.50
26707;DHT22;14319;49.422;10.934;2023-07-13T07:22:33;19.30;62.00
26707;DHT22;14319;49.422;10.934;2023-07-13T07:24:34;19.40;62.00
26707;DHT22;14319;49.422;10.934;2023-07-13T07:26:34;19.40;61.50
26707;DHT22;14319;49.422;10.934;2023-07-13T07:28:35;19.40;61.40
26707;DHT22;14319;49.422;10.934;2023-07-13T07:30:36;19.50;62.60
26707;DHT22;14319;49.422;10.934;2023-07-13T07:32:37;19.70;62.00
26707;DHT22;14319;49.422;10.934;2023-07-13T07:34:37;20.00;60.80
26707;DHT22;14319;49.422;10.934;2023-07-13T07:36:38;20.20;60.40
26707;DHT22;14319;49.422;10.934;2023-07-13T07:38:39;19.90;59.20
26707;DHT22;14319;49.422;10.934;2023-07-13T07:40:40;19.60;59.50
26707;DHT22;14319;49.422;10.934;2023-07-13T07:42:41;19.60;59.60
26707;DHT22;14319;49.422;10.934;2023-07-13T07:44:42;19.70;60.00
26707;DHT22;14319;49.422;10.934;2023-07-13T07:46:42;19.70;60.30
26707;DHT22;14319;49.422;10.934;2023-07-13T07:48:43;19.90;60.60
26707;DHT22;14319;49.422;10.934;2023-07-13T07:50:43;19.80;58.80
26707;DHT22;14319;49.422;10.934;2023-07-13T07:52:44;19.90;59.00
26707;DHT22;14319;49.422;10.934;2023-07-13T07:54:45;19.80;58.40
26707;DHT22;14319;49.422;10.934;2023-07-13T07:56:45;19.60;57.80
26707;DHT22;14319;49.422;10.934;2023-07-13T07:58:46;19.70;58.30
26707;DHT22;14319;49.422;10.934;2023-07-13T08:00:46;19.80;58.50
26707;DHT22;14319;49.422;10.934;2023-07-13T08:02:47;20.00;58.30
26707;DHT22;14319;49.422;10.934;2023-07-13T08:04:48;20.00;57.20
26707;DHT22;14319;49.422;10.934;2023-07-13T08:06:49;20.10;57.00
26707;DHT22;14319;49.422;10.934;2023-07-13T08:08:50;20.20;55.90
26707;DHT22;14319;49.422;10.934;2023-07-13T08:10:50;20.20;55.80
26707;DHT22;14319;49.422;10.934;2023-07-13T08:12:51;20.30;56.70
26707;DHT22;14319;49.422;10.934;2023-07-13T08:14:52;20.40;56.20
26707;DHT22;14319;49.422;10.934;2023-07-13T08:16:54;20.30;53.00
26707;DHT22;14319;49.422;10.934;2023-07-13T08:18:54;20.40;54.50
26707;DHT22;14319;49.422;10.934;2023-07-13T08:20:55;20.70;55.20
26707;DHT22;14319;49.422;10.934;2023-07-13T08:22:59;20.90;53.70
26707;DHT22;14319;49.422;10.934;2023-07-13T08:24:59;20.70;53.10
26707;DHT22;14319;49.422;10.934;2023-07-13T08:27:00;20.80;54.90
26707;DHT22;14319;49.422;10.934;2023-07-13T08:29:01;20.80;52.90
26707;DHT22;14319;49.422;10.934;2023-07-13T08:31:06;20.80;52.00
26707;DHT22;14319;49.422;10.934;2023-07-13T08:33:07;20.70;50.30
26707;DHT22;14319;49.422;10.934;2023-07-13T08:35:08;20.80;49.30
26707;DHT22;14319;49.422;10.934;2023-07-13T08:37:09;20.70;49.00
26707;DHT22;14319;49.422;10.934;2023-07-13T08:39:09;20.80;50.90
26707;DHT22;14319;49.422;10.934;2023-07-13T08:41:15;20.70;50.50
26707;DHT22;14319;49.422;10.934;2023-07-13T08:43:20;20.50;49.80
26707;DHT22;14319;49.422;10.934;2023-07-13T08:45:25;20.50;50.30
26707;DHT22;14319;49.422;10.934;2023-07-13T08:47:30;20.70;50.80
26707;DHT22;14319;49.422;10.934;2023-07-13T08:49:33;20.60;51.10
26707;DHT22;14319;49.422;10.934;2023-07-13T08:51:36;20.50;50.50
26707;DHT22;14319;49.422;10.934;2023-07-13T08:53:44;20.60;51.20
26707;DHT22;14319;49.422;10.934;2023-07-13T08:55:48;20.70;52.40
26707;DHT22;14319;49.422;10.934;2023-07-13T08:58:12;20.90;50.60
26707;DHT22;14319;49.422;10.934;2023-07-13T09:00:14;21.00;51.30
26707;DHT22;14319;49.422;10.934;2023-07-13T09:04:49;21.10;48.70
26707;DHT22;14319;49.422;10.934;2023-07-13T09:11:59;21.30;49.30
26707;DHT22;14319;49.422;10.934;2023-07-13T09:14:33;21.10;49.20
26707;DHT22;14319;49.422;10.934;2023-07-13T09:16:35;21.10;48.80
26707;DHT22;14319;49.422;10.934;2023-07-13T09:18:49;21.30;48.70
26707;DHT22;14319;49.422;10.934;2023-07-13T09:20:59;21.30;49.70
26707;DHT22;14319;49.422;10.934;2023-07-13T09:23:06;21.40;47.70
26707;DHT22;14319;49.422;10.934;2023-07-13T09:27:38;21.60;47.40
26707;DHT22;14319;49.422;10.934;2023-07-13T09:29:44;21.50;48.60
26707;DHT22;14319;49.422;10.934;2023-07-13T09:31:50;21.60;49.30
26707;DHT22;14319;49.422;10.934;2023-07-13T09:33:53;21.60;49.70
26707;DHT22;14319;49.422;10.934;2023-07-13T09:35:53;21.60;47.90
26707;DHT22;14319;49.422;10.934;2023-07-13T09:37:59;21.40;48.10
26707;DHT22;14319;49.422;10.934;2023-07-13T09:40:01;21.40;47.30
26707;DHT22;14319;49.422;10.934;2023-07-13T09:42:18;21.60;47.00
26707;DHT22;14319;49.422;10.934;2023-07-13T09:44:34;21.60;45.20
26707;DHT22;14319;49.422;10.934;2023-07-13T09:46:35;21.60;46.40
26707;DHT22;14319;49.422;10.934;2023-07-13T09:48:36;21.70;46.50
26707;DHT22;14319;49.422;10.934;2023-07-13T09:50:37;21.90;46.70
26707;DHT22;14319;49.422;10.934;2023-07-13T09:52:46;21.90;45.80
26707;DHT22;14319;49.422;10.934;2023-07-13T09:54:48;21.70;43.90
26707;DHT22;14319;49.422;10.934;2023-07-13T09:56:57;21.60;45.20
26707;DHT22;14319;49.422;10.934;2023-07-13T09:58:58;21.30;43.90
26707;DHT22;14319;49.422;10.934;2023-07-13T10:01:02;21.40;45.10
26707;DHT22;14319;49.422;10.934;2023-07-13T10:03:27;21.50;46.00
26707;DHT22;14319;49.422;10.934;2023-07-13T10:05:28;21.60;45.80
26707;DHT22;14319;49.422;10.934;2023-07-13T10:07:43;21.80;45.20
26707;DHT22;14319;49.422;10.934;2023-07-13T10:09:44;22.00;45.20
26707;DHT22;14319;49.422;10.934;2023-07-13T10:11:45;21.70;45.30
26707;DHT22;14319;49.422;10.934;2023-07-13T10:13:59;21.70;46.60
26707;DHT22;14319;49.422;10.934;2023-07-13T10:16:00;21.90;46.70
26707;DHT22;14319;49.422;10.934;2023-07-13T10:18:01;22.10;46.50
26707;DHT22;14319;49.422;10.934;2023-07-13T10:20:04;22.20;46.50
26707;DHT22;14319;49.422;10.934;2023-07-13T10:23:13;22.20;45.40
26707;DHT22;14319;49.422;10.934;2023-07-13T10:24:48;22.10;45.60
26707;DHT22;14319;49.422;10.934;2023-07-13T10:27:03;22.20;45.70
26707;DHT22;14319;49.422;10.934;2023-07-13T10:29:10;22.20;45.80
26707;DHT22;14319;49.422;10.934;2023-07-13T10:31:14;21.90;45.70
26707;DHT22;14319;49.422;10.934;2023-07-13T10:33:15;21.70;46.30
26707;DHT22;14319;49.422;10.934;2023-07-13T10:35:19;21.90;45.80
26707;DHT22;14319;49.422;10.934;2023-07-13T10:37:30;21.90;46.70
26707;DHT22;14319;49.422;10.934;2023-07-13T10:39:37;21.90;45.60
26707;DHT22;14319;49.422;10.934;2023-07-13T10:41:40;22.10;46.10
26707;DHT22;14319;49.422;10.934;2023-07-13T10:43:45;22.20;47.90
26707;DHT22;14319;49.422;10.934;2023-07-13T10:45:47;22.30;45.70
26707;DHT22;14319;49.422;10.934;2023-07-13T10:47:52;22.30;46.00
26707;DHT22;14319;49.422;10.934;2023-07-13T10:49:58;22.30;46.20
26707;DHT22;14319;49.422;10.934;2023-07-13T10:51:59;22.00;45.10
26707;DHT22;14319;49.422;10.934;2023-07-13T10:56:29;22.00;45.30
26707;DHT22;14319;49.422;10.934;2023-07-13T10:58:38;21.90;46.10
26707;DHT22;14319;49.422;10.934;2023-07-13T11:01:16;21.80;45.50
26707;DHT22;14319;49.422;10.934;2023-07-13T11:03:19;21.70;44.10
26707;DHT22;14319;49.422;10.934;2023-07-13T11:07:30;21.90;44.70
26707;DHT22;14319;49.422;10.934;2023-07-13T11:11:38;22.20;46.20
26707;DHT22;14319;49.422;10.934;2023-07-13T11:15:48;22.50;44.70
26707;DHT22;14319;49.422;10.934;2023-07-13T11:17:51;22.60;44.50
26707;DHT22;14319;49.422;10.934;2023-07-13T11:22:16;23.00;45.60
26707;DHT22;14319;49.422;10.934;2023-07-13T11:24:21;23.20;43.90
26707;DHT22;14319;49.422;10.934;2023-07-13T11:28:49;23.10;44.30
26707;DHT22;14319;49.422;10.934;2023-07-13T11:33:04;23.30;45.60
26707;DHT22;14319;49.422;10.934;2023-07-13T11:35:22;23.40;44.80
26707;DHT22;14319;49.422;10.934;2023-07-13T11:37:24;23.40;44.80
26707;DHT22;14319;49.422;10.934;2023-07-13T11:39:35;23.30;43.60
26707;DHT22;14319;49.422;10.934;2023-07-13T11:41:50;23.20;44.60
26707;DHT22;14319;49.422;10.934;2023-07-13T11:43:56;23.20;45.40
26707;DHT22;14319;49.422;10.934;2023-07-13T11:46:19;23.20;44.50
26707;DHT22;14319;49.422;10.934;2023-07-13T11:48:27;23.30;44.50
26707;DHT22;14319;49.422;10.934;2023-07-13T11:50:28;23.50;45.60
26707;DHT22;14319;49.422;10.934;2023-07-13T11:52:35;23.00;42.90
26707;DHT22;14319;49.422;10.934;2023-07-13T11:54:48;23.00;44.00
26707;DHT22;14319;49.422;10.934;2023-07-13T11:56:52;23.00;43.90
26707;DHT22;14319;49.422;10.934;2023-07-13T11:58:55;22.90;45.50
26707;DHT22;14319;49.422;10.934;2023-07-13T12:00:59;23.00;44.10
26707;DHT22;14319;49.422;10.934;2023-07-13T12:03:03;22.90;43.80
26707;DHT22;14319;49.422;10.934;2023-07-13T12:05:09;23.00;44.00
26707;DHT22;14319;49.422;10.934;2023-07-13T12:07:18;23.00;45.30
26707;DHT22;14319;49.422;10.934;2023-07-13T12:09:19;23.10;44.90
26707;DHT22;14319;49.422;10.934;2023-07-13T12:11:26;23.30;45.40
26707;DHT22;14319;49.422;10.934;2023-07-13T12:13:27;23.30;44.00
26707;DHT22;14319;49.422;10.934;2023-07-13T12:15:41;23.20;44.50
26707;DHT22;14319;49.422;10.934;2023-07-13T12:17:43;23.20;44.10
26707;DHT22;14319;49.422;10.934;2023-07-13T12:19:43;23.20;44.30
26707;DHT22;14319;49.422;10.934;2023-07-13T12:21:44;23.30;45.10
26707;DHT22;14319;49.422;10.934;2023-07-13T12:23:48;23.20;46.30
26707;DHT22;14319;49.422;10.934;2023-07-13T12:25:49;23.10;46.90
26707;DHT22;14319;49.422;10.934;2023-07-13T12:27:51;23.20;47.90
26707;DHT22;14319;49.422;10.934;2023-07-13T12:29:59;23.20;44.50
26707;DHT22;14319;49.422;10.934;2023-07-13T12:32:00;23.10;45.30
26707;DHT22;14319;49.422;10.934;2023-07-13T12:34:02;23.10;45.60
26707;DHT22;14319;49.422;10.934;2023-07-13T12:36:05;23.20;47.60
26707;DHT22;14319;49.422;10.934;2023-07-13T12:38:08;23.10;46.00
26707;DHT22;14319;49.422;10.934;2023-07-13T12:40:16;23.10;47.30
26707;DHT22;14319;49.422;10.934;2023-07-13T12:42:25;23.00;45.40
26707;DHT22;14319;49.422;10.934;2023-07-13T12:44:29;23.20;45.70
26707;DHT22;14319;49.422;10.934;2023-07-13T12:46:30;23.30;45.10
26707;DHT22;14319;49.422;10.934;2023-07-13T12:48:39;23.10;44.90
26707;DHT22;14319;49.422;10.934;2023-07-13T12:50:47;23.20;45.70
26707;DHT22;14319;49.422;10.934;2023-07-13T12:52:53;23.20;45.60
26707;DHT22;14319;49.422;10.934;2023-07-13T12:55:03;23.30;46.60
26707;DHT22;14319;49.422;10.934;2023-07-13T12:57:04;23.40;47.40
26707;DHT22;14319;49.422;10.934;2023-07-13T12:59:05;23.50;47.80
26707;DHT22;14319;49.422;10.934;2023-07-13T13:01:08;23.60;47.00
26707;DHT22;14319;49.422;10.934;2023-07-13T13:03:30;23.50;46.30
26707;DHT22;14319;49.422;10.934;2023-07-13T13:05:33;23.40;46.40
26707;DHT22;14319;49.422;10.934;2023-07-13T13:07:34;23.50;46.10
26707;DHT22;14319;49.422;10.934;2023-07-13T13:09:34;23.40;45.40
26707;DHT22;14319;49.422;10.934;2023-07-13T13:11:35;23.50;46.40